Time;durP1;ratioP1;P1;durP2;ratioP2;P2;SDS_P1;SDS_P2;PMS_P1;PMS_P2;Temp;Humidity;BMP_temperature;BMP_pressure;BME280_temperature;BME280_humidity;BME280_pressure;Samples;Min_cycle;Max_cycle;Signal;HPM_P1;HPM_P2
2021/12/27 00:00:48;;;;;;;28.87;10.17;;;-4.40;99.90;;;;;;5031210;28;20188;-63
2021/12/27 00:03:14;;;;;;;22.17;8.93;;;-4.40;99.90;;;;;;5030801;28;20201;-63
2021/12/27 00:05:39;;;;;;;29.87;11.70;;;-4.40;99.90;;;;;;5012850;28;20266;-61
2021/12/27 00:08:05;;;;;;;25.67;9.43;;;-4.40;99.90;;;;;;5013087;28;20207;-62
2021/12/27 00:10:32;;;;;;;20.67;9.10;;;-4.40;99.90;;;;;;5013340;28;20176;-63
2021/12/27 00:12:58;;;;;;;23.67;9.57;;;-4.40;99.90;;;;;;5013088;28;20269;-63
2021/12/27 00:15:25;;;;;;;28.80;11.43;;;-4.40;99.90;;;;;;5012695;28;20193;-62
2021/12/27 00:17:51;;;;;;;24.30;11.60;;;-4.40;99.90;;;;;;5012861;28;20244;-62
2021/12/27 00:20:19;;;;;;;30.90;11.33;;;-4.30;99.90;;;;;;5013019;28;20322;-62
2021/12/27 00:22:46;;;;;;;25.50;10.77;;;-4.30;99.90;;;;;;5012271;28;20751;-63
2021/12/27 00:25:13;;;;;;;26.37;10.90;;;-4.30;99.90;;;;;;5029896;28;20186;-62
2021/12/27 00:27:40;;;;;;;26.10;10.33;;;-4.30;99.90;;;;;;5032401;28;20179;-64
2021/12/27 00:30:07;;;;;;;26.20;11.13;;;-4.30;99.90;;;;;;5019779;28;20314;-64
2021/12/27 00:32:36;;;;;;;25.97;10.70;;;-4.30;99.90;;;;;;5012372;28;20255;-62
2021/12/27 00:35:03;;;;;;;23.10;10.10;;;-4.30;99.90;;;;;;5012788;28;20184;-62
2021/12/27 00:37:29;;;;;;;24.23;10.77;;;-4.30;99.90;;;;;;5011599;28;20261;-64
2021/12/27 00:39:55;;;;;;;24.90;10.97;;;-4.40;99.90;;;;;;5012499;28;20621;-63
2021/12/27 00:42:20;;;;;;;22.03;10.50;;;-4.30;99.90;;;;;;5012386;28;20180;-63
2021/12/27 00:44:46;;;;;;;21.23;8.90;;;-4.30;99.90;;;;;;5011828;28;20193;-63
2021/12/27 00:47:12;;;;;;;27.17;10.47;;;-4.30;99.90;;;;;;5012597;28;20214;-63
2021/12/27 00:49:37;;;;;;;23.73;9.97;;;-4.30;99.90;;;;;;5012069;28;20186;-61
2021/12/27 00:52:03;;;;;;;26.33;10.87;;;-4.30;99.90;;;;;;5031354;28;20670;-63
2021/12/27 00:54:29;;;;;;;24.47;10.20;;;-4.30;99.90;;;;;;5020477;28;20570;-63
2021/12/27 00:56:55;;;;;;;22.97;10.67;;;-4.30;99.90;;;;;;5012885;28;20233;-63
2021/12/27 00:59:20;;;;;;;22.23;10.33;;;-4.30;99.90;;;;;;5011671;28;20239;-62
2021/12/27 01:01:46;;;;;;;21.43;9.23;;;-4.30;99.90;;;;;;5012162;28;20286;-63
2021/12/27 01:04:12;;;;;;;24.07;8.80;;;-4.30;99.90;;;;;;5011987;28;20184;-61
2021/12/27 01:06:38;;;;;;;22.57;8.60;;;-4.30;99.90;;;;;;4994351;28;20190;-61
2021/12/27 01:09:04;;;;;;;20.87;9.87;;;-4.30;99.90;;;;;;4994408;28;20196;-61
2021/12/27 01:11:56;;;;;;;23.70;9.20;;;-4.40;99.90;;;;;;5011764;28;20228;-61
2021/12/27 01:14:38;;;;;;;28.77;11.80;;;-4.40;99.90;;;;;;5011771;28;20175;-62
2021/12/27 01:17:04;;;;;;;25.50;11.53;;;-4.30;99.90;;;;;;5012376;28;20342;-61
2021/12/27 01:19:30;;;;;;;20.00;9.03;;;-4.40;99.90;;;;;;5011781;28;20191;-59
2021/12/27 01:21:56;;;;;;;32.73;11.93;;;-4.40;99.90;;;;;;5012034;28;20184;-64
2021/12/27 01:24:21;;;;;;;36.17;12.10;;;-4.30;99.90;;;;;;5002371;28;20196;-64
2021/12/27 01:26:47;;;;;;;26.37;10.87;;;-4.30;99.90;;;;;;5031598;28;20191;-63
2021/12/27 01:29:13;;;;;;;24.20;10.33;;;-4.30;99.90;;;;;;5008592;28;20753;-62
2021/12/27 01:31:38;;;;;;;23.90;10.53;;;-4.40;99.90;;;;;;5011690;28;20185;-62
2021/12/27 01:34:04;;;;;;;31.90;14.17;;;-4.40;99.90;;;;;;5011962;28;20550;-62
2021/12/27 01:36:32;;;;;;;25.13;11.50;;;-4.40;99.90;;;;;;5011818;28;20311;-62
2021/12/27 01:38:59;;;;;;;27.97;12.00;;;-4.40;99.90;;;;;;5011723;28;20212;-62
2021/12/27 01:41:26;;;;;;;31.70;12.17;;;-4.30;99.90;;;;;;5012000;28;20192;-63
2021/12/27 01:43:52;;;;;;;33.03;12.33;;;-4.30;99.90;;;;;;5011015;28;20184;-63
2021/12/27 01:46:23;;;;;;;30.50;13.00;;;-4.30;99.90;;;;;;5011632;28;20219;-63
2021/12/27 01:48:58;;;;;;;28.57;12.97;;;-4.30;99.90;;;;;;5011690;28;20288;-63
2021/12/27 01:51:28;;;;;;;30.53;13.13;;;-4.30;99.90;;;;;;5025646;28;20197;-63
2021/12/27 01:53:55;;;;;;;39.47;15.20;;;-4.20;99.90;;;;;;5024431;28;20708;-63
2021/12/27 01:56:25;;;;;;;28.90;11.77;;;-4.30;99.90;;;;;;5014687;28;20195;-64
2021/12/27 01:58:52;;;;;;;39.97;16.10;;;-4.20;99.90;;;;;;5014904;28;20223;-63
2021/12/27 02:01:19;;;;;;;32.83;14.73;;;-4.20;99.90;;;;;;5015560;28;20182;-62
2021/12/27 02:03:46;;;;;;;36.03;13.47;;;-4.10;99.90;;;;;;5015194;28;20240;-60
2021/12/27 02:06:14;;;;;;;30.27;12.80;;;-4.10;99.90;;;;;;5015283;28;20181;-60
2021/12/27 02:08:41;;;;;;;31.83;13.03;;;-4.10;99.90;;;;;;5015122;28;20244;-61
2021/12/27 02:11:08;;;;;;;32.23;13.70;;;-4.20;99.90;;;;;;4997436;28;20575;-61
2021/12/27 02:13:41;;;;;;;29.77;12.63;;;-4.20;99.90;;;;;;4997394;28;20193;-61
2021/12/27 02:16:08;;;;;;;29.57;12.23;;;-4.20;99.90;;;;;;5014800;28;20236;-61
2021/12/27 02:18:35;;;;;;;29.57;11.97;;;-4.20;99.90;;;;;;5014953;28;20660;-60
2021/12/27 02:21:01;;;;;;;32.70;12.37;;;-4.20;99.90;;;;;;5015302;28;20183;-60
2021/12/27 02:23:27;;;;;;;28.10;12.03;;;-4.20;99.90;;;;;;5017585;28;20247;-61
2021/12/27 02:25:52;;;;;;;34.80;14.40;;;-4.30;99.90;;;;;;5016696;28;20196;-61
2021/12/27 02:28:20;;;;;;;30.53;13.13;;;-4.30;99.90;;;;;;5016949;28;20227;-62
2021/12/27 02:30:49;;;;;;;40.57;14.50;;;-4.30;99.90;;;;;;5016441;28;20245;-61
2021/12/27 02:33:14;;;;;;;28.63;12.37;;;-4.30;99.90;;;;;;5015004;28;20717;-62
2021/12/27 02:35:41;;;;;;;29.67;13.13;;;-4.30;99.90;;;;;;5014671;28;20254;-62
2021/12/27 02:38:11;;;;;;;31.93;14.30;;;-4.30;99.90;;;;;;5014917;28;20298;-60
2021/12/27 02:40:38;;;;;;;43.60;14.80;;;-4.20;99.90;;;;;;5014350;28;20186;-61
2021/12/27 02:43:15;;;;;;;39.83;16.07;;;-4.20;99.90;;;;;;5014182;28;20212;-62
2021/12/27 02:45:45;;;;;;;34.27;13.93;;;-4.30;99.90;;;;;;5014462;28;20169;-60
2021/12/27 02:48:13;;;;;;;32.60;13.20;;;-4.30;99.90;;;;;;5014327;28;20284;-60
2021/12/27 02:50:41;;;;;;;28.27;13.90;;;-4.20;99.90;;;;;;5021684;28;20180;-62
2021/12/27 02:53:08;;;;;;;34.87;14.33;;;-4.20;99.90;;;;;;5034018;28;20189;-65
2021/12/27 02:55:35;;;;;;;32.63;13.33;;;-4.30;99.90;;;;;;5013950;28;20195;-61
2021/12/27 02:58:01;;;;;;;33.83;14.63;;;-4.30;99.90;;;;;;5014062;28;20212;-60
2021/12/27 03:00:34;;;;;;;39.63;14.00;;;-4.30;99.90;;;;;;5014154;28;20596;-61
2021/12/27 03:03:00;;;;;;;35.83;13.83;;;-4.30;99.90;;;;;;5014390;28;20316;-63
2021/12/27 03:05:28;;;;;;;27.63;12.03;;;-4.20;99.90;;;;;;4996515;28;20626;-63
2021/12/27 03:07:55;;;;;;;27.93;11.87;;;-4.20;99.90;;;;;;5013921;28;20220;-62
2021/12/27 03:10:27;;;;;;;20.93;9.27;;;-4.20;99.90;;;;;;5013997;28;20176;-61
2021/12/27 03:12:54;;;;;;;23.10;9.13;;;-4.20;99.90;;;;;;5013375;28;20175;-61
2021/12/27 03:15:23;;;;;;;29.57;11.70;;;-4.20;99.90;;;;;;5013789;28;20189;-62
2021/12/27 03:17:50;;;;;;;18.93;9.00;;;-4.30;99.90;;;;;;4995632;28;20628;-61
2021/12/27 03:20:19;;;;;;;29.37;12.43;;;-4.30;99.90;;;;;;5013829;28;20190;-62
2021/12/27 03:22:45;;;;;;;33.67;13.07;;;-4.20;99.90;;;;;;5013352;28;20211;-62
2021/12/27 03:25:17;;;;;;;27.87;11.37;;;-4.30;99.90;;;;;;5012571;28;20193;-63
2021/12/27 03:27:44;;;;;;;31.63;13.13;;;-4.30;99.90;;;;;;5032276;28;20249;-62
2021/12/27 03:30:22;;;;;;;24.23;11.13;;;-4.30;99.90;;;;;;5020534;28;20186;-62
2021/12/27 03:32:48;;;;;;;28.53;12.37;;;-4.30;99.90;;;;;;5013343;28;20192;-62
2021/12/27 03:35:18;;;;;;;31.20;13.30;;;-4.30;99.90;;;;;;5013716;28;20181;-61
2021/12/27 03:37:51;;;;;;;31.30;12.27;;;-4.30;99.90;;;;;;5013123;28;20217;-61
2021/12/27 03:40:20;;;;;;;26.10;10.10;;;-4.20;99.90;;;;;;5013592;28;20252;-61
2021/12/27 03:42:50;;;;;;;32.27;12.43;;;-4.20;99.90;;;;;;5012948;28;20173;-61
2021/12/27 03:45:29;;;;;;;36.93;14.30;;;-4.20;99.90;;;;;;5013652;28;20629;-61
2021/12/27 03:47:56;;;;;;;27.27;11.90;;;-4.20;99.90;;;;;;5013782;28;20606;-62
2021/12/27 03:50:24;;;;;;;31.53;13.17;;;-4.20;99.90;;;;;;5018508;28;20185;-63
2021/12/27 03:52:50;;;;;;;34.90;13.03;;;-4.10;99.90;;;;;;5033380;28;20204;-63
2021/12/27 03:55:15;;;;;;;32.33;12.07;;;-4.20;99.90;;;;;;4998689;28;20621;-63
2021/12/27 03:57:43;;;;;;;33.27;14.77;;;-4.20;99.90;;;;;;4994967;28;20225;-62
2021/12/27 04:02:47;;;;;;;38.40;13.13;;;-4.20;99.90;;;;;;5013086;28;20335;-61
2021/12/27 04:05:13;;;;;;;30.23;13.70;;;-4.10;99.90;;;;;;5013197;28;20194;-63
2021/12/27 04:07:39;;;;;;;35.97;13.47;;;-4.10;99.90;;;;;;5012634;28;20189;-62
2021/12/27 04:10:10;;;;;;;29.80;12.83;;;-4.10;99.90;;;;;;5013163;28;20644;-62
2021/12/27 04:12:37;;;;;;;32.63;13.90;;;-4.10;99.90;;;;;;5012045;28;20197;-62
2021/12/27 04:15:05;;;;;;;32.23;13.43;;;-4.10;99.90;;;;;;5012826;28;20217;-63
2021/12/27 04:17:31;;;;;;;29.43;13.20;;;-4.10;99.90;;;;;;5011841;28;20719;-61
2021/12/27 04:19:57;;;;;;;34.27;12.63;;;-4.10;99.90;;;;;;5012508;28;20212;-61
2021/12/27 04:22:22;;;;;;;28.90;13.20;;;-4.10;99.90;;;;;;4995109;28;20279;-64
2021/12/27 04:24:48;;;;;;;34.77;13.23;;;-4.10;99.90;;;;;;5026435;28;20230;-61
2021/12/27 04:27:14;;;;;;;38.23;14.27;;;-4.20;99.90;;;;;;5031694;28;20555;-61
2021/12/27 04:29:40;;;;;;;29.43;11.47;;;-4.20;99.90;;;;;;5022746;28;20195;-61
2021/12/27 04:32:06;;;;;;;42.97;15.37;;;-4.10;99.90;;;;;;5012166;28;20223;-62
2021/12/27 04:34:32;;;;;;;34.23;12.80;;;-4.10;99.90;;;;;;5012498;28;20196;-62
2021/12/27 04:36:58;;;;;;;33.93;13.50;;;-4.20;99.90;;;;;;4994285;28;20637;-63
2021/12/27 04:39:23;;;;;;;25.90;10.53;;;-4.20;99.90;;;;;;5012380;28;20669;-63
2021/12/27 04:41:50;;;;;;;32.17;13.07;;;-4.10;99.90;;;;;;5011815;28;20200;-62
2021/12/27 04:44:16;;;;;;;25.70;11.00;;;-4.10;99.90;;;;;;5012378;28;20659;-62
2021/12/27 04:46:42;;;;;;;33.57;13.63;;;-4.10;99.90;;;;;;4994235;28;20264;-63
2021/12/27 04:49:07;;;;;;;30.50;13.93;;;-4.00;99.90;;;;;;4994989;28;20192;-63
2021/12/27 04:51:33;;;;;;;36.57;16.30;;;-4.00;99.90;;;;;;5009640;28;20225;-62
2021/12/27 04:53:59;;;;;;;40.07;14.33;;;-4.00;99.90;;;;;;5024712;28;20216;-61
2021/12/27 04:56:25;;;;;;;30.67;13.57;;;-4.00;99.90;;;;;;5011675;28;20198;-61
2021/12/27 04:58:50;;;;;;;38.10;14.67;;;-4.00;99.90;;;;;;5011572;28;20211;-61
2021/12/27 05:01:17;;;;;;;37.17;16.10;;;-4.00;99.90;;;;;;4994562;28;20185;-60
2021/12/27 05:03:43;;;;;;;39.53;15.57;;;-4.00;99.90;;;;;;4993977;28;20528;-62
2021/12/27 05:06:09;;;;;;;45.57;16.33;;;-4.00;99.90;;;;;;5012177;28;20203;-62
2021/12/27 05:08:35;;;;;;;39.87;14.80;;;-4.00;99.90;;;;;;5011137;28;20185;-67
2021/12/27 05:11:02;;;;;;;39.03;15.13;;;-4.00;99.90;;;;;;5013822;28;20183;-61
2021/12/27 05:13:31;;;;;;;42.77;16.63;;;-4.00;99.90;;;;;;5030711;28;20211;-60
2021/12/27 05:15:58;;;;;;;39.50;16.23;;;-4.00;99.90;;;;;;5031187;28;20271;-63
2021/12/27 05:18:24;;;;;;;38.67;14.67;;;-4.00;99.90;;;;;;5030237;28;20220;-62
2021/12/27 05:20:50;;;;;;;36.20;13.93;;;-3.90;99.90;;;;;;5031189;28;20547;-62
2021/12/27 05:23:15;;;;;;;38.43;14.77;;;-3.90;99.90;;;;;;5031859;28;20192;-63
2021/12/27 05:25:41;;;;;;;35.73;16.23;;;-3.90;99.90;;;;;;5014134;28;20184;-64
2021/12/27 05:28:09;;;;;;;40.23;14.80;;;-3.90;99.90;;;;;;5031233;28;20635;-63
2021/12/27 05:30:35;;;;;;;34.87;12.77;;;-4.00;99.90;;;;;;5018113;28;20212;-62
2021/12/27 05:33:01;;;;;;;40.77;15.07;;;-4.00;99.90;;;;;;5014586;28;20231;-62
2021/12/27 05:35:27;;;;;;;37.93;16.33;;;-4.10;99.90;;;;;;5015374;28;20187;-64
2021/12/27 05:37:53;;;;;;;41.80;16.60;;;-4.10;99.90;;;;;;5013712;28;20300;-64
2021/12/27 05:40:22;;;;;;;42.77;16.63;;;-4.10;99.90;;;;;;4995819;28;20714;-64
2021/12/27 05:42:50;;;;;;;37.43;16.77;;;-4.10;99.90;;;;;;5012806;28;20172;-63
2021/12/27 05:45:17;;;;;;;45.27;18.57;;;-4.00;99.90;;;;;;4995889;28;20492;-63
2021/12/27 05:47:44;;;;;;;47.33;15.80;;;-3.90;99.90;;;;;;5013591;28;20179;-64
2021/12/27 05:50:11;;;;;;;42.07;16.80;;;-4.00;99.90;;;;;;5017209;28;20278;-60
2021/12/27 05:52:37;;;;;;;42.63;18.23;;;-3.90;99.90;;;;;;5035042;28;20207;-67
2021/12/27 05:55:08;;;;;;;53.83;18.57;;;-4.00;99.90;;;;;;5017439;28;20242;-60
2021/12/27 05:57:35;;;;;;;43.60;16.53;;;-3.90;99.90;;;;;;5015075;28;20279;-60
2021/12/27 06:00:06;;;;;;;44.80;17.27;;;-3.90;99.90;;;;;;5015014;28;20254;-61
2021/12/27 06:02:32;;;;;;;44.10;16.83;;;-3.90;99.90;;;;;;5014867;28;20269;-61
2021/12/27 06:04:58;;;;;;;44.03;15.73;;;-3.90;99.90;;;;;;5014801;28;20276;-61
2021/12/27 06:07:24;;;;;;;42.33;16.13;;;-3.90;99.90;;;;;;4998849;28;20580;-61
2021/12/27 06:09:50;;;;;;;38.43;15.13;;;-3.90;99.90;;;;;;5016723;28;20580;-61
2021/12/27 06:12:16;;;;;;;53.37;15.97;;;-3.90;99.90;;;;;;5016532;28;20649;-62
2021/12/27 06:14:41;;;;;;;35.63;15.40;;;-3.90;99.90;;;;;;5032221;28;20675;-62
2021/12/27 06:17:07;;;;;;;39.83;15.73;;;-4.00;99.90;;;;;;5032028;28;20237;-62
2021/12/27 06:19:33;;;;;;;48.50;15.53;;;-4.00;99.90;;;;;;5032279;28;20209;-62
2021/12/27 06:21:59;;;;;;;35.93;13.70;;;-3.90;99.90;;;;;;5032130;28;20770;-62
2021/12/27 06:24:25;;;;;;;54.40;17.50;;;-3.90;99.90;;;;;;5032105;28;20205;-64
2021/12/27 06:26:50;;;;;;;47.73;17.17;;;-3.90;99.90;;;;;;5031764;28;20237;-64
2021/12/27 06:29:16;;;;;;;55.17;15.83;;;-3.80;99.90;;;;;;5025770;28;20198;-64
2021/12/27 06:31:42;;;;;;;48.20;15.47;;;-3.80;99.90;;;;;;5010442;28;20182;-65
2021/12/27 06:34:08;;;;;;;52.77;17.50;;;-3.80;99.90;;;;;;5010448;28;20205;-64
2021/12/27 06:36:34;;;;;;;43.60;14.70;;;-3.80;99.90;;;;;;5010575;28;20240;-63
2021/12/27 06:39:00;;;;;;;44.60;16.03;;;-3.70;99.90;;;;;;5013269;28;20239;-63
2021/12/27 06:41:26;;;;;;;35.30;13.27;;;-3.70;99.90;;;;;;5005694;28;20185;-65
2021/12/27 06:43:53;;;;;;;29.33;12.33;;;-3.70;99.90;;;;;;4996877;28;20196;-64
2021/12/27 06:46:19;;;;;;;56.00;16.60;;;-3.60;99.90;;;;;;5013952;28;20189;-64
2021/12/27 06:48:45;;;;;;;47.50;18.17;;;-3.60;99.90;;;;;;5033150;28;20200;-62
2021/12/27 06:51:10;;;;;;;47.70;15.80;;;-3.60;99.90;;;;;;5014924;28;20192;-62
2021/12/27 06:53:36;;;;;;;45.10;16.30;;;-3.60;99.90;;;;;;5014651;28;20399;-62
2021/12/27 06:56:04;;;;;;;50.30;17.27;;;-3.60;99.90;;;;;;5032943;28;20200;-64
2021/12/27 06:58:30;;;;;;;42.87;15.40;;;-3.60;99.90;;;;;;4999172;28;20213;-63
2021/12/27 07:00:55;;;;;;;44.63;17.67;;;-3.50;99.90;;;;;;5014452;28;20181;-63
2021/12/27 07:03:21;;;;;;;27.33;11.83;;;-3.60;99.90;;;;;;5033063;28;20194;-63
2021/12/27 07:05:48;;;;;;;40.57;15.63;;;-3.60;99.90;;;;;;5032580;28;20203;-63
2021/12/27 07:08:15;;;;;;;41.60;16.50;;;-3.50;99.90;;;;;;5033088;28;20381;-62
2021/12/27 07:10:41;;;;;;;39.57;15.13;;;-3.50;99.90;;;;;;4998561;28;20189;-64
2021/12/27 07:13:09;;;;;;;40.80;15.20;;;-3.50;99.90;;;;;;5032301;28;20296;-67
2021/12/27 07:15:41;;;;;;;32.20;12.07;;;-3.50;99.90;;;;;;5032298;28;20244;-67
2021/12/27 07:18:16;;;;;;;36.33;14.83;;;-3.50;99.90;;;;;;5015568;28;20331;-66
2021/12/27 07:20:42;;;;;;;43.23;15.93;;;-3.50;99.90;;;;;;5012550;28;20249;-66
2021/12/27 07:23:08;;;;;;;51.93;17.70;;;-3.60;99.90;;;;;;5012901;28;20593;-65
2021/12/27 07:25:34;;;;;;;49.07;16.80;;;-3.50;99.90;;;;;;5012288;28;20188;-66
2021/12/27 07:28:00;;;;;;;39.17;16.53;;;-3.40;99.90;;;;;;5012922;28;20681;-64
2021/12/27 07:30:28;;;;;;;32.47;13.53;;;-3.30;99.90;;;;;;5027993;28;20182;-65
2021/12/27 07:32:55;;;;;;;39.37;15.93;;;-3.20;99.90;;;;;;5032367;28;20182;-64
2021/12/27 07:35:22;;;;;;;40.03;14.30;;;-3.20;99.90;;;;;;5032735;28;20253;-62
2021/12/27 07:37:48;;;;;;;31.37;12.27;;;-3.30;99.90;;;;;;5032566;28;20202;-62
2021/12/27 07:40:13;;;;;;;33.30;13.70;;;-3.20;99.90;;;;;;5032123;28;20680;-63
2021/12/27 07:42:40;;;;;;;35.57;13.97;;;-3.10;99.90;;;;;;5032846;28;20186;-63
2021/12/27 07:45:06;;;;;;;45.23;14.43;;;-3.10;99.90;;;;;;5032695;28;20173;-63
2021/12/27 07:47:32;;;;;;;41.43;15.43;;;-3.20;99.90;;;;;;5032698;28;20239;-61
2021/12/27 07:49:58;;;;;;;36.00;15.07;;;-3.10;99.90;;;;;;5031953;28;20181;-62
2021/12/27 07:52:24;;;;;;;45.70;16.20;;;-3.10;99.90;;;;;;4997462;28;20291;-61
2021/12/27 07:54:50;;;;;;;41.17;17.13;;;-3.00;99.90;;;;;;5031844;28;20193;-60
2021/12/27 07:57:16;;;;;;;51.30;15.67;;;-3.00;99.90;;;;;;5031648;28;20177;-63
2021/12/27 07:59:42;;;;;;;42.60;15.07;;;-2.90;99.90;;;;;;5032177;28;20224;-68
2021/12/27 08:02:10;;;;;;;36.80;14.87;;;-3.00;99.90;;;;;;5032179;28;20635;-61
2021/12/27 08:04:37;;;;;;;31.40;13.57;;;-3.00;99.90;;;;;;5032260;28;20201;-62
2021/12/27 08:07:03;;;;;;;30.53;12.97;;;-3.00;99.90;;;;;;5014209;28;20195;-61
2021/12/27 08:09:29;;;;;;;28.43;12.77;;;-2.80;99.90;;;;;;5031870;28;20311;-61
2021/12/27 08:11:54;;;;;;;40.10;12.77;;;-2.80;99.90;;;;;;5013671;28;20275;-63
2021/12/27 08:14:28;;;;;;;31.37;12.53;;;-2.90;99.90;;;;;;5122999;27;20606;-61
2021/12/27 08:16:54;;;;;;;33.77;12.13;;;-3.00;99.90;;;;;;5108083;28;20201;-60
2021/12/27 08:19:19;;;;;;;31.83;11.10;;;-2.90;99.90;;;;;;5106333;28;20191;-61
2021/12/27 08:21:45;;;;;;;24.23;10.90;;;-2.90;99.90;;;;;;5105712;28;20547;-61
2021/12/27 08:24:11;;;;;;;32.37;12.13;;;-2.90;99.90;;;;;;5098034;28;20532;-59
2021/12/27 08:26:38;;;;;;;26.20;8.20;;;-2.90;99.90;;;;;;5086406;28;20632;-61
2021/12/27 08:29:07;;;;;;;24.63;11.17;;;-2.90;99.90;;;;;;5090560;28;20595;-61
2021/12/27 08:31:33;;;;;;;20.00;9.83;;;-3.00;99.90;;;;;;5106202;28;20218;-62
2021/12/27 08:33:58;;;;;;;29.30;11.57;;;-3.00;99.90;;;;;;5105921;28;20643;-60
2021/12/27 08:36:24;;;;;;;29.37;11.50;;;-3.10;99.90;;;;;;5107314;28;20576;-62
2021/12/27 08:38:51;;;;;;;22.47;9.57;;;-3.00;99.90;;;;;;5107308;28;20692;-61
2021/12/27 08:41:18;;;;;;;84.03;21.40;;;-3.00;99.90;;;;;;5107400;28;20199;-61
2021/12/27 08:43:44;;;;;;;30.70;12.70;;;-2.90;99.90;;;;;;5107469;28;20286;-59
2021/12/27 08:46:10;;;;;;;34.67;9.97;;;-2.80;99.90;;;;;;5107205;28;20179;-61
2021/12/27 08:48:36;;;;;;;34.80;9.77;;;-2.80;99.90;;;;;;5107062;28;20201;-59
2021/12/27 08:51:03;;;;;;;21.23;8.10;;;-2.60;99.90;;;;;;5106898;28;20180;-63
2021/12/27 08:53:28;;;;;;;19.63;8.87;;;-2.60;99.90;;;;;;5106700;28;20287;-63
2021/12/27 08:55:54;;;;;;;30.07;10.33;;;-2.40;99.90;;;;;;5106743;28;20179;-61
2021/12/27 08:58:20;;;;;;;19.60;8.87;;;-2.40;99.90;;;;;;5106455;28;20412;-60
2021/12/27 09:00:46;;;;;;;30.20;8.67;;;-2.30;99.90;;;;;;5108259;28;20266;-61
2021/12/27 09:03:12;;;;;;;19.13;8.13;;;-2.20;99.90;;;;;;5106891;28;20195;-61
2021/12/27 09:05:39;;;;;;;20.57;8.27;;;-2.30;99.90;;;;;;5106941;28;20195;-60
2021/12/27 09:08:04;;;;;;;23.73;9.47;;;-2.30;99.90;;;;;;5106998;28;20175;-61
2021/12/27 09:10:30;;;;;;;15.00;7.57;;;-2.10;99.90;;;;;;5108148;28;20202;-61
2021/12/27 09:12:56;;;;;;;16.53;7.67;;;-2.00;99.90;;;;;;5107522;28;20250;-62
2021/12/27 09:15:22;;;;;;;20.80;8.53;;;-2.20;99.90;;;;;;5108065;28;20190;-61
2021/12/27 09:17:48;;;;;;;19.10;8.57;;;-2.00;99.90;;;;;;5107586;28;20245;-62
2021/12/27 09:20:15;;;;;;;16.73;7.77;;;-2.20;99.90;;;;;;5107248;28;20204;-61
2021/12/27 09:22:42;;;;;;;20.80;9.10;;;-2.30;99.90;;;;;;5089724;28;20222;-61
2021/12/27 09:25:08;;;;;;;18.47;7.90;;;-2.40;99.90;;;;;;5079397;28;20228;-61
2021/12/27 09:27:34;;;;;;;22.57;8.77;;;-2.40;99.90;;;;;;5074188;28;20184;-62
2021/12/27 09:30:00;;;;;;;22.33;7.37;;;-2.50;99.90;;;;;;5085767;28;20642;-61
2021/12/27 09:32:26;;;;;;;20.10;8.33;;;-2.60;99.90;;;;;;5093583;28;20215;-61
2021/12/27 09:34:52;;;;;;;17.30;7.80;;;-2.70;99.90;;;;;;5094081;28;20545;-61
2021/12/27 09:37:17;;;;;;;18.07;8.20;;;-2.70;99.90;;;;;;5093727;28;20206;-62
2021/12/27 09:39:43;;;;;;;22.97;7.77;;;-2.60;99.90;;;;;;5092448;28;20183;-62
2021/12/27 09:42:09;;;;;;;23.00;8.37;;;-2.50;99.90;;;;;;5093542;28;20176;-60
2021/12/27 09:44:35;;;;;;;16.17;8.00;;;-2.50;99.90;;;;;;5094093;28;20599;-63
2021/12/27 09:47:01;;;;;;;16.27;8.50;;;-2.40;99.90;;;;;;5093438;28;20551;-61
2021/12/27 09:49:29;;;;;;;23.87;9.87;;;-2.50;99.90;;;;;;5092915;28;20329;-61
2021/12/27 09:51:57;;;;;;;23.90;8.03;;;-2.50;99.90;;;;;;5075194;28;20339;-62
2021/12/27 09:54:26;;;;;;;26.70;8.83;;;-2.40;99.90;;;;;;5083338;28;20211;-60
2021/12/27 09:56:52;;;;;;;22.10;8.30;;;-2.50;99.90;;;;;;5093277;28;20199;-59
2021/12/27 09:59:18;;;;;;;24.60;7.40;;;-2.50;99.90;;;;;;5093817;28;20527;-60
2021/12/27 10:01:43;;;;;;;23.07;7.67;;;-2.60;99.90;;;;;;5093744;28;20565;-64
2021/12/27 10:04:09;;;;;;;22.43;8.67;;;-2.60;99.90;;;;;;5092959;28;20198;-64
2021/12/27 10:06:35;;;;;;;24.37;10.67;;;-2.50;99.90;;;;;;5092235;28;20186;-64
2021/12/27 10:09:05;;;;;;;20.13;8.87;;;-2.70;99.90;;;;;;5092998;28;20213;-65
2021/12/27 10:11:34;;;;;;;30.90;10.27;;;-2.60;99.90;;;;;;5093312;28;20180;-65
2021/12/27 10:14:08;;;;;;;25.07;8.77;;;-2.60;99.90;;;;;;5092798;28;20239;-65
2021/12/27 10:16:38;;;;;;;29.23;9.50;;;-2.50;99.90;;;;;;5093608;28;20200;-65
2021/12/27 10:19:08;;;;;;;35.77;12.00;;;-2.60;99.90;;;;;;5093126;28;20184;-64
2021/12/27 10:21:35;;;;;;;32.47;9.03;;;-2.70;99.90;;;;;;5093265;28;20262;-64
2021/12/27 10:24:08;;;;;;;30.50;10.50;;;-2.60;99.90;;;;;;5092779;28;20188;-67
2021/12/27 10:26:35;;;;;;;41.67;11.53;;;-2.70;99.90;;;;;;5093463;28;20226;-64
2021/12/27 10:29:17;;;;;;;24.90;10.63;;;-2.70;99.90;;;;;;5093335;28;20184;-65
2021/12/27 10:31:59;;;;;;;20.40;10.13;;;-2.60;99.90;;;;;;5092883;28;20526;-64
2021/12/27 10:34:29;;;;;;;16.90;7.70;;;-2.60;99.90;;;;;;5093145;28;20230;-63
2021/12/27 10:37:05;;;;;;;20.30;8.57;;;-2.60;99.90;;;;;;5092306;28;20270;-64
2021/12/27 10:40:08;;;;;;;33.37;13.13;;;-2.50;99.90;;;;;;5093137;28;20612;-64
2021/12/27 10:42:53;;;;;;;48.73;20.00;;;-2.50;99.90;;;;;;5092917;28;20247;-65
2021/12/27 10:45:22;;;;;;;37.40;15.43;;;-2.30;99.90;;;;;;5092738;28;20596;-64
2021/12/27 10:47:57;;;;;;;29.23;9.90;;;-2.10;99.90;;;;;;5092706;28;20186;-64
2021/12/27 10:50:26;;;;;;;40.57;13.10;;;-2.00;99.90;;;;;;5087005;28;20176;-64
2021/12/27 10:53:02;;;;;;;17.87;8.13;;;-2.10;99.90;;;;;;5071668;28;20693;-64
2021/12/27 10:55:46;;;;;;;16.70;7.50;;;-2.10;99.90;;;;;;5091156;28;20180;-63
2021/12/27 10:58:24;;;;;;;15.90;7.67;;;-2.10;99.90;;;;;;5092156;28;20620;-64
2021/12/27 11:00:58;;;;;;;19.20;7.60;;;-2.10;99.90;;;;;;5092369;28;20187;-65
2021/12/27 11:03:37;;;;;;;19.07;9.03;;;-1.90;99.90;;;;;;5092242;28;20190;-63
2021/12/27 11:06:05;;;;;;;24.23;8.33;;;-1.90;99.90;;;;;;5092253;28;20263;-64
2021/12/27 11:08:32;;;;;;;16.53;7.67;;;-1.80;99.90;;;;;;5092089;28;20176;-63
2021/12/27 11:10:59;;;;;;;23.80;9.47;;;-1.90;99.90;;;;;;5090398;28;20184;-65
2021/12/27 11:13:26;;;;;;;20.30;8.47;;;-2.00;99.90;;;;;;5091446;28;20704;-64
2021/12/27 11:15:52;;;;;;;16.07;8.40;;;-2.00;99.90;;;;;;5090501;28;20183;-64
2021/12/27 11:18:18;;;;;;;19.23;8.63;;;-1.90;99.90;;;;;;5092326;28;20181;-65
2021/12/27 11:21:09;;;;;;;19.40;8.20;;;-2.00;99.90;;;;;;5092302;28;20276;-63
2021/12/27 11:23:35;;;;;;;17.60;7.87;;;-2.00;99.90;;;;;;5091913;28;20189;-63
2021/12/27 11:26:07;;;;;;;18.67;8.10;;;-2.10;99.90;;;;;;5090810;28;20638;-65
2021/12/27 11:28:35;;;;;;;24.43;9.57;;;-2.20;99.90;;;;;;5091988;28;20179;-63
2021/12/27 11:31:14;;;;;;;30.67;10.90;;;-2.10;99.90;;;;;;5071792;28;20216;-63
2021/12/27 11:33:53;;;;;;;24.83;7.60;;;-2.00;99.90;;;;;;5071543;28;20200;-64
2021/12/27 11:36:19;;;;;;;47.93;13.77;;;-2.00;99.90;;;;;;5071716;28;20457;-62
2021/12/27 11:38:45;;;;;;;16.23;7.57;;;-1.90;99.90;;;;;;5071031;28;20197;-65
2021/12/27 11:41:36;;;;;;;23.97;7.67;;;-1.90;99.90;;;;;;5086816;28;20547;-62
2021/12/27 11:44:17;;;;;;;24.70;10.10;;;-1.90;99.90;;;;;;5070955;28;20193;-61
2021/12/27 11:46:49;;;;;;;14.13;6.00;;;-2.00;99.90;;;;;;5071692;28;20174;-61
2021/12/27 11:49:16;;;;;;;25.63;9.30;;;-2.10;99.90;;;;;;5071113;28;20199;-63
2021/12/27 11:51:46;;;;;;;14.37;6.70;;;-2.30;99.90;;;;;;5087979;28;20180;-63
2021/12/27 11:54:33;;;;;;;29.40;8.67;;;-2.40;99.90;;;;;;5080565;28;20262;-63
2021/12/27 11:56:58;;;;;;;22.87;7.17;;;-2.40;99.90;;;;;;5071599;28;20547;-63
2021/12/27 11:59:31;;;;;;;9.70;5.10;;;-2.40;99.90;;;;;;5071814;28;20181;-64
2021/12/27 12:02:13;;;;;;;40.53;10.20;;;-2.50;99.90;;;;;;5072192;28;20230;-63
2021/12/27 12:04:50;;;;;;;21.13;8.23;;;-2.50;99.90;;;;;;5071456;28;20468;-62
2021/12/27 12:07:34;;;;;;;19.03;6.87;;;-2.30;99.90;;;;;;5071180;28;20187;-63
2021/12/27 12:10:20;;;;;;;14.30;6.37;;;-2.20;99.90;;;;;;5071292;28;20188;-63
2021/12/27 12:13:14;;;;;;;15.17;6.83;;;-2.10;99.90;;;;;;5070783;28;20289;-61
2021/12/27 12:15:58;;;;;;;18.67;7.40;;;-2.20;99.90;;;;;;5070877;28;20271;-62
2021/12/27 12:18:24;;;;;;;15.27;7.63;;;-2.30;99.90;;;;;;5069875;28;20183;-62
2021/12/27 12:20:50;;;;;;;17.30;6.63;;;-2.40;99.90;;;;;;5071402;28;20184;-64
2021/12/27 12:23:16;;;;;;;19.33;9.20;;;-2.40;99.90;;;;;;5071617;28;20191;-65
2021/12/27 12:25:42;;;;;;;24.57;7.13;;;-2.50;99.90;;;;;;5091505;28;20186;-62
2021/12/27 12:28:14;;;;;;;20.17;8.07;;;-2.50;99.90;;;;;;5090769;28;20211;-63
2021/12/27 12:30:50;;;;;;;13.47;6.20;;;-2.60;99.90;;;;;;5091676;28;20240;-62
2021/12/27 12:33:19;;;;;;;19.60;8.50;;;-2.70;99.90;;;;;;5091162;28;20298;-62
2021/12/27 12:35:48;;;;;;;20.23;8.57;;;-2.60;99.90;;;;;;5091143;28;20172;-62
2021/12/27 12:38:29;;;;;;;20.80;7.07;;;-2.60;99.90;;;;;;5090187;28;20182;-62